Powell, WY (82435)

11:43 PM MDT die 24o June, anno 2018 (GMT -0600)
W Powell | | Change Station

Elev 4393 ft 44.75 °N, 108.77 °W | Updated 1 minute ago

Plerumque Nubila
Plerumque Nubila
59.7 °F
Feels Like 59.7 °F
N
0
Ventus Variabilis Ventus from Magis Auster quam Zephyrus
Gusts 0.0 mph

Hodie
High -- | Low -- °F
--% Chance of Precip.
Yesterday
High -- | Low -- °F
Precip. -- in
Pressio 30.07 in
Visibilitas 10.0 milia passuum
Clouds Plerumque Nubila 10000 ft
Frigus in quo Ros apparet 54 °F
Umor 80%
Rainfall 0.00 in
Snow Depth Not available.
5:30 AM 9:04 PM
Waxing Gibbous, 92% visible
METAR KCOD 250456Z AUTO 29003KT 10SM BKN100 17/11 A3016 RMK AO2 RAB20E41 SLP183 P0000 T01720106
Pressio 30.07 in
Visibilitas 10.0 milia passuum
Clouds Plerumque Nubila 10000 ft
Frigus in quo Ros apparet 54 °F
Umor 80%
Rainfall 0.00 in
Snow Depth Not available.
5:30 AM 9:04 PM
Waxing Gibbous, 92% visible
METAR KCOD 250456Z AUTO 29003KT 10SM BKN100 17/11 A3016 RMK AO2 RAB20E41 SLP183 P0000 T01720106

Get Severe Weather Alerts

Thanks for signing up!

Be on the lookout for a verification email in your inbox.

You'll start receiving the daily forecast at 6 AM.

×

10-Day Weather Forecast

Almanac

Astronomy

Jun. 24, 2018 Rise Set
Actual Time
Civil Twilight
Nautical Twilight
Astronomical Twilight
Moon
Length Of Visible Light
Length of Day
Tomorrow will be .
, % of the Moon is Illuminated

Today's Extremes

State Highs State Lows

Community

WunderPhotos

Category 6

Welcome to Category 6. This is the collective home for Weather Underground's featured writeups by Dr. Jeff Masters (right), Bob Henson (left), Chris Burt, and other regular contributors.

Nearby

Air Quality

  Air Quality AQ Index Pollutant
Not available.

Snow Depth

Station Depth Elevation

Earthquake Activity

City Distance Mag. Time & Date
Minimum magnitude displayed is 2.5.

Coastal Water Temperatures

Locus Calor

Stations

Nearby Weather Stations

Station Location Temp Frigus Venti Frigus in quo Ros apparet Umor Ventus Precip. Elev Renovata Type
                   

Watches & Warnings

There are currently no watches in effect.